createdAt,value
2023-03-29T00:01:00.700Z,6.43
2023-03-29T00:03:30.604Z,8.27
2023-03-29T00:06:05.827Z,5.32
2023-03-29T00:08:34.492Z,5.68
2023-03-29T00:11:03.079Z,7.35
2023-03-29T00:13:31.586Z,6.95
2023-03-29T00:15:59.722Z,6.63
2023-03-29T00:18:27.829Z,6.20
2023-03-29T00:21:00.676Z,6.25
2023-03-29T00:23:31.476Z,7.80
2023-03-29T00:25:59.650Z,6.18
2023-03-29T00:28:27.928Z,7.28
2023-03-29T00:31:06.344Z,6.85
2023-03-29T00:33:34.942Z,8.82
2023-03-29T00:36:04.520Z,9.55
2023-03-29T00:38:33.589Z,6.22
2023-03-29T00:41:06.939Z,7.43
2023-03-29T00:44:00.912Z,7.10
2023-03-29T00:46:31.424Z,9.52
2023-03-29T00:49:07.069Z,9.88
2023-03-29T00:51:41.405Z,9.80
2023-03-29T00:54:14.912Z,8.93
2023-03-29T00:56:47.493Z,8.65
2023-03-29T00:59:21.714Z,11.88
2023-03-29T01:01:58.597Z,9.07
2023-03-29T01:04:40.713Z,10.75
2023-03-29T01:07:21.768Z,9.50
2023-03-29T01:10:09.158Z,6.82
2023-03-29T01:12:43.002Z,12.60
2023-03-29T01:15:18.728Z,11.05
2023-03-29T01:17:50.754Z,9.55
2023-03-29T01:20:51.141Z,7.60
2023-03-29T01:23:58.293Z,8.63
2023-03-29T01:26:57.262Z,7.50
2023-03-29T01:29:31.756Z,10.50
2023-03-29T01:32:35.060Z,11.55
2023-03-29T01:35:10.547Z,7.25
2023-03-29T01:37:51.367Z,8.60
2023-03-29T01:40:19.696Z,8.40
2023-03-29T01:43:00.729Z,8.40
2023-03-29T01:45:34.278Z,7.28
2023-03-29T01:48:06.239Z,8.38
2023-03-29T01:50:34.410Z,6.88
2023-03-29T01:53:17.659Z,7.32
2023-03-29T01:55:51.671Z,10.13
2023-03-29T01:58:26.472Z,7.97
2023-03-29T02:00:55.497Z,7.75
2023-03-29T02:03:28.228Z,7.30
2023-03-29T02:05:59.277Z,6.75
2023-03-29T02:08:30.989Z,8.27
2023-03-29T02:10:59.509Z,6.25
2023-03-29T02:13:27.713Z,8.95
2023-03-29T02:15:56.587Z,10.35
2023-03-29T02:18:25.999Z,8.63
2023-03-29T02:20:59.004Z,8.68
2023-03-29T02:26:03.969Z,11.93
2023-03-29T02:28:33.380Z,8.85
2023-03-29T02:31:04.723Z,10.70
2023-03-29T02:33:42.196Z,9.75
2023-03-29T02:36:17.700Z,10.70
2023-03-29T02:38:46.409Z,9.90
2023-03-29T02:41:16.869Z,8.35
2023-03-29T02:43:47.698Z,6.45
2023-03-29T02:46:18.489Z,9.10
2023-03-29T02:48:48.618Z,8.57
2023-03-29T02:51:27.550Z,7.45
2023-03-29T02:54:12.959Z,7.95
2023-03-29T02:56:50.078Z,6.05
2023-03-29T02:59:19.912Z,5.93
2023-03-29T03:01:48.422Z,8.38
2023-03-29T03:04:18.530Z,5.45
2023-03-29T03:06:47.580Z,8.75
2023-03-29T03:09:16.811Z,5.80
2023-03-29T03:11:47.603Z,6.75
2023-03-29T03:14:16.798Z,5.97
2023-03-29T03:16:45.959Z,6.60
2023-03-29T03:19:14.798Z,6.25
2023-03-29T03:21:45.601Z,8.88
2023-03-29T03:24:13.969Z,7.00
2023-03-29T03:26:42.061Z,6.28
2023-03-29T03:29:11.308Z,7.38
2023-03-29T03:32:02.520Z,8.07
2023-03-29T03:34:50.986Z,11.20
2023-03-29T03:37:20.010Z,8.35
2023-03-29T03:39:48.289Z,8.40
2023-03-29T03:42:16.849Z,10.32
2023-03-29T03:44:46.692Z,9.23
2023-03-29T03:47:33.953Z,11.55
2023-03-29T03:50:15.980Z,11.38
2023-03-29T03:52:44.060Z,12.15
2023-03-29T03:55:12.310Z,9.48
2023-03-29T03:57:43.292Z,11.98
2023-03-29T04:00:22.965Z,8.13
2023-03-29T04:03:06.236Z,6.80
2023-03-29T04:05:42.294Z,12.67
2023-03-29T04:08:12.544Z,8.68
2023-03-29T04:11:10.043Z,8.55
2023-03-29T04:13:40.776Z,12.20
2023-03-29T04:16:38.289Z,7.05
2023-03-29T04:19:26.357Z,7.63
2023-03-29T04:21:55.463Z,8.30
2023-03-29T04:24:25.040Z,6.15
2023-03-29T04:27:13.163Z,5.32
2023-03-29T04:29:41.447Z,6.25
2023-03-29T04:32:19.401Z,5.07
2023-03-29T04:35:16.814Z,6.55
2023-03-29T04:37:45.667Z,6.75
2023-03-29T04:40:19.368Z,6.43
2023-03-29T04:42:57.800Z,6.00
2023-03-29T04:45:44.805Z,8.27
2023-03-29T04:48:24.599Z,8.82
2023-03-29T04:50:54.468Z,9.82
2023-03-29T04:53:22.844Z,11.25
2023-03-29T04:55:53.256Z,7.18
2023-03-29T04:58:36.276Z,7.80
2023-03-29T05:01:05.815Z,8.65
2023-03-29T05:03:40.480Z,8.80
2023-03-29T05:06:17.230Z,8.73
2023-03-29T05:08:48.564Z,9.02
2023-03-29T05:11:46.022Z,7.90
2023-03-29T05:14:15.286Z,7.43
2023-03-29T05:16:45.544Z,6.88
2023-03-29T05:19:13.889Z,8.43
2023-03-29T05:21:46.977Z,10.13
2023-03-29T05:24:19.212Z,10.95
2023-03-29T05:26:53.517Z,12.35
2023-03-29T05:29:23.488Z,8.48
2023-03-29T05:32:00.098Z,20.00
2023-03-29T05:34:29.772Z,14.60
2023-03-29T05:37:01.516Z,9.80
2023-03-29T05:39:37.525Z,9.77
2023-03-29T05:42:06.510Z,10.15
2023-03-29T05:44:46.331Z,11.77
2023-03-29T05:47:20.058Z,12.00
2023-03-29T05:49:48.206Z,13.63
2023-03-29T05:52:22.249Z,14.52
2023-03-29T05:54:50.698Z,12.25
2023-03-29T05:57:19.144Z,13.38
2023-03-29T05:59:47.980Z,12.98
2023-03-29T06:02:16.978Z,11.63
2023-03-29T06:04:50.074Z,12.77
2023-03-29T06:07:24.497Z,17.77
2023-03-29T06:10:31.381Z,12.30
2023-03-29T06:13:13.935Z,9.77
2023-03-29T06:15:42.206Z,10.80
2023-03-29T06:18:11.445Z,8.45
2023-03-29T06:20:40.421Z,12.25
2023-03-29T06:23:14.008Z,9.88
2023-03-29T06:25:44.541Z,12.50
2023-03-29T06:28:14.587Z,12.68
2023-03-29T06:30:43.706Z,11.60
2023-03-29T06:33:12.537Z,16.05
2023-03-29T06:35:50.834Z,15.05
2023-03-29T06:41:21.791Z,8.93
2023-03-29T06:44:10.344Z,11.25
2023-03-29T06:46:49.919Z,8.68
2023-03-29T06:49:18.175Z,10.63
2023-03-29T06:52:04.260Z,10.95
2023-03-29T06:54:33.902Z,8.32
2023-03-29T06:57:05.429Z,14.85
2023-03-29T06:59:35.649Z,11.90
2023-03-29T07:02:36.534Z,12.40
2023-03-29T07:05:12.176Z,10.60
2023-03-29T07:08:05.318Z,10.15
2023-03-29T07:10:59.952Z,11.38
2023-03-29T07:13:34.393Z,10.70
2023-03-29T07:16:07.862Z,12.05
2023-03-29T07:18:54.910Z,11.35
2023-03-29T07:21:55.275Z,9.32
2023-03-29T07:24:32.596Z,12.18
2023-03-29T07:27:04.580Z,11.27
2023-03-29T07:32:02.415Z,10.05
2023-03-29T07:34:48.021Z,11.73
2023-03-29T07:37:26.749Z,10.38
2023-03-29T07:39:56.791Z,13.13
2023-03-29T07:42:44.085Z,10.77
2023-03-29T07:48:10.882Z,15.15
2023-03-29T07:51:02.752Z,12.45
2023-03-29T07:53:38.733Z,13.32
2023-03-29T07:56:13.532Z,20.42
2023-03-29T07:59:04.252Z,14.70
2023-03-29T08:01:32.408Z,11.63
2023-03-29T08:04:00.810Z,15.90
2023-03-29T08:06:52.433Z,14.18
2023-03-29T08:09:22.421Z,11.23
2023-03-29T08:11:50.775Z,11.60
2023-03-29T08:14:26.032Z,14.45
2023-03-29T08:17:00.954Z,13.70
2023-03-29T08:19:30.643Z,17.90
2023-03-29T08:22:18.224Z,12.70
2023-03-29T08:25:08.279Z,12.15
2023-03-29T08:27:44.842Z,13.95
2023-03-29T08:30:15.871Z,15.13
2023-03-29T08:32:45.276Z,16.63
2023-03-29T08:35:14.508Z,9.18
2023-03-29T08:38:05.736Z,9.52
2023-03-29T08:40:35.342Z,9.43
2023-03-29T08:43:39.475Z,10.80
2023-03-29T08:46:26.303Z,11.45
2023-03-29T08:49:05.506Z,10.68
2023-03-29T08:51:39.558Z,9.27
2023-03-29T08:54:12.613Z,9.85
2023-03-29T08:57:31.653Z,16.40
2023-03-29T09:00:10.568Z,12.00
2023-03-29T09:02:43.617Z,12.07
2023-03-29T09:05:29.644Z,11.88
2023-03-29T09:08:17.455Z,11.63
2023-03-29T09:11:24.517Z,9.75
2023-03-29T09:14:12.220Z,14.90
2023-03-29T09:16:57.453Z,14.48
2023-03-29T09:19:29.980Z,12.30
2023-03-29T09:22:16.062Z,15.17
2023-03-29T09:24:54.158Z,12.38
2023-03-29T09:27:27.635Z,14.45
2023-03-29T09:30:26.296Z,15.02
2023-03-29T09:33:31.641Z,10.13
2023-03-29T09:36:20.587Z,13.45
2023-03-29T09:38:54.377Z,11.05
2023-03-29T09:41:39.232Z,13.63
2023-03-29T09:44:23.917Z,12.73
2023-03-29T09:47:20.692Z,9.10
2023-03-29T09:49:57.544Z,10.50
2023-03-29T09:52:26.280Z,9.20
2023-03-29T09:55:06.717Z,12.10
2023-03-29T09:57:51.536Z,9.30
2023-03-29T10:00:23.409Z,8.40
2023-03-29T10:02:53.869Z,11.07
2023-03-29T10:05:32.609Z,15.23
2023-03-29T10:08:11.994Z,15.25
2023-03-29T10:10:41.539Z,13.40
2023-03-29T10:13:18.984Z,16.20
2023-03-29T10:15:57.910Z,10.68
2023-03-29T10:18:31.595Z,11.75
2023-03-29T10:21:03.728Z,13.23
2023-03-29T10:23:37.816Z,11.52
2023-03-29T10:26:15.015Z,11.90
2023-03-29T10:28:43.599Z,12.13
2023-03-29T10:31:20.170Z,10.35
2023-03-29T10:33:57.214Z,11.38
2023-03-29T10:36:27.950Z,9.43
2023-03-29T10:39:05.132Z,11.05
2023-03-29T10:41:35.713Z,9.35
2023-03-29T10:44:05.557Z,8.77
2023-03-29T10:46:42.935Z,10.77
2023-03-29T10:49:20.758Z,8.85
2023-03-29T10:51:50.831Z,11.23
2023-03-29T10:54:22.341Z,10.13
2023-03-29T10:56:58.008Z,14.57
2023-03-29T10:59:38.340Z,12.18
2023-03-29T11:02:34.507Z,13.93
2023-03-29T11:05:18.538Z,17.13
2023-03-29T11:08:18.169Z,10.15
2023-03-29T11:10:52.793Z,17.73
2023-03-29T11:13:38.145Z,13.07
2023-03-29T11:16:12.234Z,13.00
2023-03-29T11:18:52.610Z,10.10
2023-03-29T11:21:36.905Z,14.30
2023-03-29T11:24:29.626Z,14.88
2023-03-29T11:27:12.299Z,13.20
2023-03-29T11:30:08.398Z,14.90
2023-03-29T11:32:37.340Z,9.95
2023-03-29T11:35:22.267Z,9.60
2023-03-29T11:37:50.336Z,12.77
2023-03-29T11:40:39.473Z,11.55
2023-03-29T11:43:20.435Z,16.65
2023-03-29T11:46:00.231Z,15.18
2023-03-29T11:48:40.887Z,11.73
2023-03-29T11:51:27.049Z,14.90
2023-03-29T11:54:05.687Z,11.02
2023-03-29T11:56:47.221Z,11.13
2023-03-29T11:59:25.317Z,12.65
2023-03-29T12:01:59.857Z,10.98
2023-03-29T12:04:36.696Z,11.60
2023-03-29T12:07:10.803Z,10.48
2023-03-29T12:09:46.761Z,13.32
2023-03-29T12:12:34.277Z,8.65
2023-03-29T12:15:07.247Z,8.65
2023-03-29T12:17:59.121Z,8.60
2023-03-29T12:20:36.372Z,9.85
2023-03-29T12:23:08.109Z,11.52
2023-03-29T12:26:05.904Z,7.13
2023-03-29T12:29:01.111Z,9.73
2023-03-29T12:31:49.195Z,11.18
2023-03-29T12:34:41.649Z,8.82
2023-03-29T12:38:08.332Z,10.02
2023-03-29T12:41:00.851Z,9.57
2023-03-29T12:43:52.492Z,9.10
2023-03-29T12:46:35.486Z,9.27
2023-03-29T12:49:26.890Z,9.00
2023-03-29T12:51:57.467Z,8.63
2023-03-29T12:54:30.435Z,10.38
2023-03-29T12:57:20.256Z,6.47
2023-03-29T12:59:49.617Z,10.75
2023-03-29T13:02:18.118Z,7.05
2023-03-29T13:04:52.891Z,5.75
2023-03-29T13:07:24.247Z,8.00
2023-03-29T13:09:58.106Z,8.85
2023-03-29T13:12:46.513Z,6.07
2023-03-29T13:15:17.713Z,9.65
2023-03-29T13:17:46.414Z,8.98
2023-03-29T13:20:40.310Z,8.70
2023-03-29T13:26:21.510Z,8.27
2023-03-29T13:29:03.679Z,10.63
2023-03-29T13:31:54.909Z,9.02
2023-03-29T13:34:31.836Z,9.23
2023-03-29T13:37:28.540Z,7.00
2023-03-29T13:39:56.999Z,9.45
2023-03-29T13:42:32.937Z,9.75
2023-03-29T13:45:26.382Z,9.57
2023-03-29T13:48:22.086Z,7.95
2023-03-29T13:50:56.493Z,7.82
2023-03-29T13:53:43.403Z,10.90
2023-03-29T13:56:18.821Z,7.03
2023-03-29T13:58:52.230Z,9.07
2023-03-29T14:04:02.741Z,13.23
2023-03-29T14:06:34.940Z,9.18
2023-03-29T14:09:08.783Z,10.23
2023-03-29T14:11:36.996Z,10.07
2023-03-29T14:14:08.127Z,8.70
2023-03-29T14:16:39.119Z,10.27
2023-03-29T14:19:18.249Z,8.93
2023-03-29T14:21:49.361Z,10.85
2023-03-29T14:24:22.274Z,11.55
2023-03-29T14:26:52.551Z,7.28
2023-03-29T14:29:21.903Z,7.30
2023-03-29T14:31:53.576Z,11.30
2023-03-29T14:34:23.791Z,8.98
2023-03-29T14:36:54.218Z,7.60
2023-03-29T14:39:23.716Z,16.13
2023-03-29T14:41:58.108Z,11.50
2023-03-29T14:44:37.413Z,12.18
2023-03-29T14:47:05.863Z,7.72
2023-03-29T14:49:34.738Z,7.97
2023-03-29T14:52:03.403Z,11.57
2023-03-29T14:54:34.353Z,12.65
2023-03-29T14:57:09.742Z,9.60
2023-03-29T14:59:42.829Z,10.85
2023-03-29T15:02:34.049Z,10.90
2023-03-29T15:05:05.341Z,10.23
2023-03-29T15:07:36.491Z,8.50
2023-03-29T15:10:06.636Z,6.97
2023-03-29T15:12:43.323Z,12.48
2023-03-29T15:15:13.716Z,10.32
2023-03-29T15:17:51.599Z,9.15
2023-03-29T15:20:27.187Z,15.75
2023-03-29T15:23:17.855Z,10.07
2023-03-29T15:25:57.138Z,11.40
2023-03-29T15:28:32.693Z,9.75
2023-03-29T15:31:10.292Z,12.27
2023-03-29T15:33:41.798Z,10.23
2023-03-29T15:36:15.249Z,11.65
2023-03-29T15:38:45.344Z,11.18
2023-03-29T15:41:14.791Z,7.80
2023-03-29T15:43:43.528Z,10.05
2023-03-29T15:46:14.034Z,8.05
2023-03-29T15:48:42.740Z,9.32
2023-03-29T15:51:14.478Z,10.57
2023-03-29T15:53:43.196Z,13.23
2023-03-29T15:56:17.459Z,8.15
2023-03-29T15:58:46.920Z,8.02
2023-03-29T16:01:33.535Z,10.82
2023-03-29T16:04:07.512Z,6.93
2023-03-29T16:06:37.966Z,13.98
2023-03-29T16:09:07.180Z,11.00
2023-03-29T16:11:36.058Z,5.95
2023-03-29T16:14:18.997Z,11.80
2023-03-29T16:16:47.327Z,11.35
2023-03-29T16:19:15.715Z,11.07
2023-03-29T16:21:44.937Z,11.93
2023-03-29T16:24:20.178Z,11.57
2023-03-29T16:26:52.734Z,10.25
2023-03-29T16:29:25.621Z,10.10
2023-03-29T16:31:54.448Z,7.60
2023-03-29T16:34:23.122Z,18.55
2023-03-29T16:36:54.260Z,11.20
2023-03-29T16:39:22.459Z,10.88
2023-03-29T16:41:50.865Z,12.07
2023-03-29T16:44:23.953Z,9.90
2023-03-29T16:46:54.597Z,11.27
2023-03-29T16:49:24.847Z,8.57
2023-03-29T16:51:53.485Z,12.75
2023-03-29T16:54:21.904Z,10.45
2023-03-29T16:56:50.697Z,12.45
2023-03-29T16:59:19.247Z,12.48
2023-03-29T17:01:49.978Z,10.30
2023-03-29T17:04:18.406Z,8.77
2023-03-29T17:06:47.686Z,11.13
2023-03-29T17:09:18.251Z,11.93
2023-03-29T17:11:46.536Z,11.95
2023-03-29T17:14:16.121Z,11.65
2023-03-29T17:16:44.259Z,12.35
2023-03-29T17:19:15.268Z,10.25
2023-03-29T17:21:43.500Z,15.82
2023-03-29T17:24:12.218Z,10.68
2023-03-29T17:26:40.361Z,12.68
2023-03-29T17:29:08.550Z,9.38
2023-03-29T17:31:38.043Z,12.93
2023-03-29T17:34:06.348Z,12.35
2023-03-29T17:36:37.400Z,11.85
2023-03-29T17:39:05.530Z,13.30
2023-03-29T17:41:33.660Z,11.70
2023-03-29T17:44:02.474Z,14.75
2023-03-29T17:46:31.159Z,17.90
2023-03-29T17:49:00.374Z,16.85
2023-03-29T17:51:28.495Z,15.88
2023-03-29T17:53:57.189Z,17.70
2023-03-29T17:56:26.591Z,21.80
2023-03-29T17:58:55.017Z,15.82
2023-03-29T18:01:23.267Z,15.95
2023-03-29T18:03:51.723Z,18.40
2023-03-29T18:06:20.936Z,16.02
2023-03-29T18:08:49.246Z,14.07
2023-03-29T18:11:22.509Z,20.98
2023-03-29T18:13:52.796Z,17.83
2023-03-29T18:16:21.914Z,12.13
2023-03-29T18:18:53.065Z,18.02
2023-03-29T18:21:22.027Z,18.40
2023-03-29T18:23:52.840Z,14.18
2023-03-29T18:26:22.849Z,15.82
2023-03-29T18:28:51.293Z,18.30
2023-03-29T18:31:20.049Z,31.10
2023-03-29T18:33:48.661Z,33.08
2023-03-29T18:36:16.961Z,29.98
2023-03-29T18:38:45.835Z,29.70
2023-03-29T18:41:14.726Z,22.77
2023-03-29T18:43:44.234Z,19.55
2023-03-29T18:46:14.041Z,16.25
2023-03-29T18:48:42.395Z,21.13
2023-03-29T18:51:11.576Z,15.45
2023-03-29T18:53:42.010Z,17.60
2023-03-29T18:56:11.176Z,25.02
2023-03-29T18:58:39.435Z,14.18
2023-03-29T19:01:09.701Z,22.42
2023-03-29T19:03:38.235Z,12.63
2023-03-29T19:06:07.968Z,17.38
2023-03-29T19:08:39.140Z,10.55
2023-03-29T19:11:14.248Z,19.85
2023-03-29T19:13:42.697Z,14.53
2023-03-29T19:16:12.287Z,14.15
2023-03-29T19:18:43.820Z,13.68
2023-03-29T19:21:12.159Z,21.90
2023-03-29T19:23:41.043Z,41.35
2023-03-29T19:26:11.632Z,39.95
2023-03-29T19:28:42.630Z,29.42
2023-03-29T19:31:12.824Z,43.53
2023-03-29T19:33:41.307Z,20.30
2023-03-29T19:36:09.711Z,20.80
2023-03-29T19:38:39.585Z,12.13
2023-03-29T19:41:08.433Z,18.25
2023-03-29T19:43:37.176Z,12.10
2023-03-29T19:46:10.531Z,14.57
2023-03-29T19:48:42.478Z,17.42
2023-03-29T19:51:13.576Z,14.60
2023-03-29T19:53:43.505Z,12.02
2023-03-29T19:56:15.657Z,14.27
2023-03-29T19:58:50.649Z,17.73
2023-03-29T20:01:27.257Z,16.13
2023-03-29T20:04:07.141Z,14.50
2023-03-29T20:06:37.152Z,17.30
2023-03-29T20:09:08.812Z,12.25
2023-03-29T20:11:40.746Z,19.70
2023-03-29T20:14:12.382Z,15.57
2023-03-29T20:16:43.489Z,15.00
2023-03-29T20:19:14.844Z,14.68
2023-03-29T20:21:45.002Z,17.73
2023-03-29T20:24:13.929Z,14.85
2023-03-29T20:26:43.648Z,18.20
2023-03-29T20:29:15.336Z,13.23
2023-03-29T20:31:44.104Z,16.48
2023-03-29T20:34:12.893Z,15.77
2023-03-29T20:36:41.166Z,16.77
2023-03-29T20:39:09.549Z,23.95
2023-03-29T20:41:38.404Z,16.02
2023-03-29T20:44:06.756Z,18.02
2023-03-29T20:46:35.061Z,14.48
2023-03-29T20:49:05.465Z,20.50
2023-03-29T20:51:35.889Z,16.65
2023-03-29T20:54:09.543Z,18.88
2023-03-29T20:56:42.249Z,17.67
2023-03-29T20:59:11.096Z,15.82
2023-03-29T21:01:41.015Z,16.23
2023-03-29T21:04:10.864Z,13.13
2023-03-29T21:06:39.634Z,19.90
2023-03-29T21:09:07.998Z,14.07
2023-03-29T21:11:36.128Z,18.02
2023-03-29T21:14:04.355Z,16.45
2023-03-29T21:16:32.450Z,17.98
2023-03-29T21:19:00.844Z,13.70
2023-03-29T21:21:29.705Z,14.25
2023-03-29T21:23:57.840Z,16.55
2023-03-29T21:26:26.382Z,20.63
2023-03-29T21:28:54.600Z,18.58
2023-03-29T21:31:22.771Z,15.45
2023-03-29T21:33:50.978Z,19.42
2023-03-29T21:36:19.642Z,20.73
2023-03-29T21:38:47.797Z,16.17
2023-03-29T21:41:15.926Z,24.60
2023-03-29T21:43:44.521Z,19.70
2023-03-29T21:46:12.872Z,18.77
2023-03-29T21:48:44.270Z,15.65
2023-03-29T21:51:12.397Z,15.82
2023-03-29T21:53:40.697Z,21.02
2023-03-29T21:56:09.442Z,15.95
2023-03-29T21:58:37.802Z,16.25
2023-03-29T22:01:07.420Z,13.85
2023-03-29T22:03:36.700Z,17.00
2023-03-29T22:06:10.044Z,24.58
2023-03-29T22:11:14.381Z,18.63
2023-03-29T22:13:44.180Z,22.75
2023-03-29T22:16:15.332Z,20.42
2023-03-29T22:18:44.407Z,23.13
2023-03-29T22:21:30.556Z,14.18
2023-03-29T22:24:01.023Z,19.25
2023-03-29T22:26:32.183Z,17.05
2023-03-29T22:29:01.233Z,19.33
2023-03-29T22:31:30.421Z,18.25
2023-03-29T22:33:58.804Z,19.75
2023-03-29T22:36:29.899Z,15.05
2023-03-29T22:38:58.611Z,10.88
2023-03-29T22:41:27.968Z,16.30
2023-03-29T22:44:00.024Z,15.93
2023-03-29T22:46:28.290Z,16.85
2023-03-29T22:48:56.527Z,14.75
2023-03-29T22:51:24.675Z,13.43
2023-03-29T22:53:53.002Z,13.35
2023-03-29T22:56:21.867Z,17.27
2023-03-29T22:58:50.318Z,20.17
2023-03-29T23:01:18.404Z,16.17
2023-03-29T23:03:46.514Z,15.05
2023-03-29T23:06:14.648Z,20.10
2023-03-29T23:08:42.911Z,20.17
2023-03-29T23:11:11.577Z,17.13
2023-03-29T23:13:39.750Z,19.60
2023-03-29T23:16:08.253Z,14.45
2023-03-29T23:18:37.601Z,18.90
2023-03-29T23:21:07.506Z,18.00
2023-03-29T23:23:37.918Z,13.13
2023-03-29T23:26:09.144Z,26.33
2023-03-29T23:28:37.843Z,13.02
2023-03-29T23:31:11.831Z,18.00
2023-03-29T23:33:42.777Z,17.58
2023-03-29T23:36:18.977Z,15.90
2023-03-29T23:38:47.884Z,15.23
2023-03-29T23:41:17.735Z,16.10
2023-03-29T23:43:47.228Z,13.95
2023-03-29T23:46:17.536Z,13.48
2023-03-29T23:48:47.294Z,17.00
2023-03-29T23:51:18.622Z,15.98
2023-03-29T23:53:48.005Z,16.60
2023-03-29T23:56:16.354Z,18.27
2023-03-29T23:58:44.802Z,14.68
